Wyandot, Ohio
Current Conditions -  °F | °C
As of 4:53 PM on Thursday 27 Nov 2014 (Local Time) from KMNN Reporting Station
Haze Haze  
Wind Chill: 22°   Ceiling: 4600
Heat Index: 31°   Visibility: 6mi
Dew Point: 24°   Wind: 10mph
Humidity: 76%   Direction: 270°W
Pressure: 30.22"   Gusts: NA
Location:  40.8054°N, 83.1316°W
Report Text: KMNN 272153Z AUTO 27009KT 6SM HZ SCT038 OVC046 M01/M04 A3022 RMK AO2 SNB12E40 SLP246 P0000 T10061044 TSNO
Loading
Personal Weather Stations






























Interactive Weather Map New forecast layout! Learn more

10-Day Weather Forecast

Advertisements
Track Severe Weather on mobile